Strona główna
METAR-TAF:

METAR-TAF

Lotnisko :

Port lotniczy Dżudda

Dżudda, Arabia Saudyjska

Szerokość geograficzna: 21-42N, Długość geograficzna: 039-11E, wysokość: 15 m

Aktualna obserwacja pogody

Raport powstał 1 godzina i 2 minut temu, godzina 10:00 UTC
Wiatr 12 kt od północny zachód
Temperatura 33°C
Wilgotność 39%
Ciśnienie 1011 hPa
Widzialność 10 km lub więcej
Mało chmury na wysokości 3500 ft

METAR: OEJN 191000Z 32012KT 9999 FEW035 33/17 Q1011 NOSIG

czas: 14:02 (11:02 UTC)

Prognoza

Raport powstał 6 godziny i 2 minut temu, godzina 05:00 UTC
Prognoza ważna od 19 godzina 06 UTC do 20 godzina 12 UTC
Wiatr 8 kt od północny zachód w porywach dochodzący do 18 kt
Widzialność 10 km lub więcej
Mało chmury na wysokości 4000 ft
Rozproszone chmury na wysokości 10000 ft
Przejściowo
od 19 godzina 06 UTC do 19 godzina 10 UTC
Mało chmury na wysokości 3500 ft, Cumulonimbus.
Rozproszone chmury na wysokości 4000 ft

TAF: OEJN 190500Z 1906/2012 32008G18KT 9999 FEW040 SCT100 TEMPO 1906/1910 FEW035CB SCT040

Obserwacja i prognoza pogody dla ponad 4000 lotnisk (raport METAR i TAF).

Dostępne stacje oznaczono żółtymi i czerwonymi punktami na mapie.

Najedź kursorem aby zobaczyć nazwę stacji.

Kliknij aby zobaczyć obserwacje i prognozy pogody.

Aby zmienić mapę: kliknij na zielony przycisk z czarnym krzyżykiem, aby powiększyć; na zielony przycisk z myślnikiem, aby pomniejszyć; na zielone strzałki, aby przejść do map sąsiednich.


METAR-TAF: